createdAt,value
2023-02-12T00:00:54.908Z,9.9
2023-02-12T00:01:58.374Z,9.9
2023-02-12T00:03:00.983Z,9.9
2023-02-12T00:04:03.989Z,9.9
2023-02-12T00:05:07.762Z,9.9
2023-02-12T00:06:14.807Z,9.9
2023-02-12T00:07:19.007Z,9.9
2023-02-12T00:08:22.112Z,9.9
2023-02-12T00:09:24.623Z,9.9
2023-02-12T00:10:28.728Z,9.9
2023-02-12T00:11:31.895Z,9.9
2023-02-12T00:12:34.708Z,9.9
2023-02-12T00:13:38.356Z,9.9
2023-02-12T00:14:41.899Z,10
2023-02-12T00:15:45.258Z,10
2023-02-12T00:16:49.016Z,10
2023-02-12T00:17:51.782Z,10
2023-02-12T00:18:55.128Z,10
2023-02-12T00:19:58.542Z,10
2023-02-12T00:21:02.281Z,10
2023-02-12T00:22:05.688Z,10
2023-02-12T00:23:08.690Z,10
2023-02-12T00:24:12.047Z,10
2023-02-12T00:25:14.624Z,10
2023-02-12T00:26:17.831Z,10
2023-02-12T00:27:21.027Z,10
2023-02-12T00:28:24.397Z,10
2023-02-12T00:29:27.123Z,10
2023-02-12T00:30:30.654Z,10
2023-02-12T00:31:34.271Z,10
2023-02-12T00:32:37.604Z,10
2023-02-12T00:33:41.038Z,10
2023-02-12T00:34:44.184Z,10
2023-02-12T00:35:46.951Z,10
2023-02-12T00:36:50.967Z,10.1
2023-02-12T00:37:54.058Z,10.1
2023-02-12T00:38:56.854Z,10.1
2023-02-12T00:39:59.924Z,10.1
2023-02-12T00:41:03.693Z,10.1
2023-02-12T00:42:07.144Z,10.1
2023-02-12T00:43:10.356Z,10.1
2023-02-12T00:44:13.802Z,10.1
2023-02-12T00:45:16.885Z,10.1
2023-02-12T00:46:20.444Z,10.1
2023-02-12T00:47:24.468Z,10.1
2023-02-12T00:48:27.828Z,10.1
2023-02-12T00:49:31.358Z,10.1
2023-02-12T00:50:34.743Z,10
2023-02-12T00:51:38.153Z,10
2023-02-12T00:52:41.667Z,10
2023-02-12T00:53:44.718Z,10
2023-02-12T00:54:47.769Z,10
2023-02-12T00:55:51.057Z,10
2023-02-12T00:56:54.124Z,10
2023-02-12T00:57:57.487Z,10
2023-02-12T00:59:00.841Z,10
2023-02-12T01:00:03.839Z,10
2023-02-12T01:01:07.323Z,10
2023-02-12T01:02:10.714Z,10
2023-02-12T01:03:14.357Z,10
2023-02-12T01:04:17.233Z,9.9
2023-02-12T01:05:20.599Z,9.9
2023-02-12T01:06:23.894Z,9.9
2023-02-12T01:07:27.017Z,10
2023-02-12T01:08:30.416Z,9.9
2023-02-12T01:09:33.216Z,9.9
2023-02-12T01:10:36.964Z,9.9
2023-02-12T01:11:39.738Z,10
2023-02-12T01:12:43.179Z,10
2023-02-12T01:13:46.681Z,10
2023-02-12T01:14:50.084Z,10
2023-02-12T01:15:54.447Z,9.9
2023-02-12T01:16:58.981Z,9.9
2023-02-12T01:18:02.093Z,9.9
2023-02-12T01:19:04.877Z,9.9
2023-02-12T01:20:08.118Z,9.9
2023-02-12T01:21:10.664Z,9.9
2023-02-12T01:22:14.082Z,9.9
2023-02-12T01:23:16.810Z,9.9
2023-02-12T01:24:20.283Z,9.9
2023-02-12T01:25:23.077Z,9.9
2023-02-12T01:26:26.548Z,9.9
2023-02-12T01:27:30.074Z,9.9
2023-02-12T01:28:33.238Z,9.9
2023-02-12T01:29:36.562Z,9.9
2023-02-12T01:30:39.358Z,9.9
2023-02-12T01:31:43.772Z,9.9
2023-02-12T01:32:47.161Z,9.9
2023-02-12T01:33:50.551Z,10
2023-02-12T01:34:53.407Z,10
2023-02-12T01:35:57.496Z,10
2023-02-12T01:37:01.238Z,10
2023-02-12T01:38:04.307Z,10
2023-02-12T01:39:06.842Z,9.9
2023-02-12T01:40:10.638Z,9.9
2023-02-12T01:41:14.311Z,9.9
2023-02-12T01:42:17.357Z,10
2023-02-12T01:43:20.678Z,9.9
2023-02-12T01:44:23.686Z,10
2023-02-12T01:45:26.606Z,10
2023-02-12T01:46:30.711Z,10
2023-02-12T01:47:33.977Z,10
2023-02-12T01:48:37.347Z,10
2023-02-12T01:49:40.799Z,10
2023-02-12T01:50:43.876Z,9.9
2023-02-12T01:51:47.095Z,10
2023-02-12T01:52:51.024Z,10
2023-02-12T01:53:54.376Z,9.9
2023-02-12T01:54:58.244Z,10
2023-02-12T01:56:01.696Z,10
2023-02-12T01:57:05.182Z,10
2023-02-12T01:58:08.586Z,10
2023-02-12T01:59:11.361Z,10
2023-02-12T02:00:14.361Z,10
2023-02-12T02:01:18.264Z,10
2023-02-12T02:02:21.650Z,10
2023-02-12T02:03:24.935Z,10
2023-02-12T02:04:28.280Z,10
2023-02-12T02:05:31.075Z,10
2023-02-12T02:06:33.889Z,10
2023-02-12T02:07:36.972Z,10
2023-02-12T02:08:40.336Z,10
2023-02-12T02:09:43.677Z,10
2023-02-12T02:10:46.766Z,10
2023-02-12T02:11:50.236Z,10
2023-02-12T02:12:52.759Z,10
2023-02-12T02:13:55.931Z,10
2023-02-12T02:14:59.649Z,10.1
2023-02-12T02:16:02.903Z,10.1
2023-02-12T02:17:06.877Z,10.1
2023-02-12T02:18:10.984Z,10
2023-02-12T02:19:14.344Z,10
2023-02-12T02:20:17.067Z,10.1
2023-02-12T02:21:20.152Z,10.1
2023-02-12T02:22:22.914Z,10
2023-02-12T02:23:26.225Z,10.1
2023-02-12T02:24:29.913Z,10.1
2023-02-12T02:25:32.745Z,10.1
2023-02-12T02:26:36.023Z,10.1
2023-02-12T02:27:39.802Z,10
2023-02-12T02:28:42.780Z,10
2023-02-12T02:29:46.548Z,10
2023-02-12T02:30:49.373Z,10
2023-02-12T02:31:52.760Z,10
2023-02-12T02:32:56.890Z,10
2023-02-12T02:34:00.149Z,10
2023-02-12T02:35:03.519Z,10
2023-02-12T02:36:06.613Z,10
2023-02-12T02:37:09.891Z,10
2023-02-12T02:38:13.228Z,10
2023-02-12T02:39:15.818Z,10
2023-02-12T02:40:18.615Z,10
2023-02-12T02:41:21.398Z,10
2023-02-12T02:42:24.844Z,10.1
2023-02-12T02:43:27.973Z,10.1
2023-02-12T02:44:30.471Z,10.1
2023-02-12T02:45:33.551Z,10
2023-02-12T02:46:36.333Z,10.1
2023-02-12T02:47:39.567Z,10.1
2023-02-12T02:48:43.240Z,10.1
2023-02-12T02:49:46.096Z,10
2023-02-12T02:50:49.775Z,10
2023-02-12T02:51:52.968Z,10
2023-02-12T02:52:56.075Z,10
2023-02-12T02:53:59.356Z,10
2023-02-12T02:55:02.695Z,10
2023-02-12T02:56:06.106Z,10
2023-02-12T02:57:09.187Z,10
2023-02-12T02:58:12.548Z,10
2023-02-12T02:59:16.049Z,10
2023-02-12T03:00:18.932Z,10
2023-02-12T03:01:21.730Z,10
2023-02-12T03:02:24.892Z,10
2023-02-12T03:03:27.984Z,10
2023-02-12T03:04:31.269Z,10
2023-02-12T03:05:34.836Z,10
2023-02-12T03:06:38.493Z,10
2023-02-12T03:07:41.600Z,10
2023-02-12T03:08:44.330Z,10
2023-02-12T03:09:47.707Z,10
2023-02-12T03:10:51.221Z,9.9
2023-02-12T03:11:53.938Z,9.9
2023-02-12T03:12:57.179Z,9.9
2023-02-12T03:14:00.333Z,9.9
2023-02-12T03:15:04.101Z,9.9
2023-02-12T03:16:07.050Z,9.9
2023-02-12T03:17:11.186Z,10
2023-02-12T03:18:14.142Z,9.9
2023-02-12T03:19:17.827Z,9.9
2023-02-12T03:20:21.305Z,9.9
2023-02-12T03:21:24.679Z,9.9
2023-02-12T03:22:27.691Z,9.9
2023-02-12T03:23:30.765Z,9.9
2023-02-12T03:24:34.289Z,9.9
2023-02-12T03:25:37.980Z,9.9
2023-02-12T03:26:41.983Z,10
2023-02-12T03:27:44.770Z,10
2023-02-12T03:28:48.218Z,10
2023-02-12T03:29:51.024Z,10
2023-02-12T03:30:54.134Z,10
2023-02-12T03:31:58.103Z,10
2023-02-12T03:33:02.158Z,10
2023-02-12T03:34:05.060Z,10
2023-02-12T03:35:07.862Z,10
2023-02-12T03:36:11.252Z,10
2023-02-12T03:37:14.653Z,10
2023-02-12T03:38:18.071Z,10
2023-02-12T03:39:21.530Z,10
2023-02-12T03:40:25.593Z,10
2023-02-12T03:41:28.976Z,10
2023-02-12T03:42:32.252Z,10
2023-02-12T03:43:35.881Z,10
2023-02-12T03:44:39.056Z,10
2023-02-12T03:45:42.607Z,10
2023-02-12T03:46:46.657Z,10
2023-02-12T03:47:50.192Z,10
2023-02-12T03:48:53.471Z,10
2023-02-12T03:49:56.642Z,9.9
2023-02-12T03:51:00.144Z,9.9
2023-02-12T03:52:03.667Z,9.9
2023-02-12T03:53:07.192Z,9.9
2023-02-12T03:54:10.600Z,9.9
2023-02-12T03:55:13.314Z,9.9
2023-02-12T03:56:16.124Z,9.9
2023-02-12T03:57:19.839Z,9.9
2023-02-12T03:58:23.256Z,9.9
2023-02-12T03:59:25.965Z,9.9
2023-02-12T04:00:29.040Z,9.9
2023-02-12T04:01:33.024Z,9.9
2023-02-12T04:02:36.555Z,9.8
2023-02-12T04:03:39.935Z,9.8
2023-02-12T04:04:43.377Z,9.8
2023-02-12T04:05:46.606Z,9.8
2023-02-12T04:06:49.892Z,9.8
2023-02-12T04:07:53.676Z,9.7
2023-02-12T04:08:57.058Z,9.7
2023-02-12T04:09:59.500Z,9.7
2023-02-12T04:11:02.349Z,9.7
2023-02-12T04:12:05.836Z,9.7
2023-02-12T04:13:09.566Z,9.7
2023-02-12T04:14:13.277Z,9.7
2023-02-12T04:15:16.387Z,9.7
2023-02-12T04:16:20.732Z,9.7
2023-02-12T04:17:24.932Z,9.7
2023-02-12T04:18:29.156Z,9.7
2023-02-12T04:19:32.172Z,9.7
2023-02-12T04:20:35.454Z,9.7
2023-02-12T04:21:38.526Z,9.7
2023-02-12T04:22:41.639Z,9.7
2023-02-12T04:23:44.911Z,9.7
2023-02-12T04:24:48.627Z,9.7
2023-02-12T04:25:51.395Z,9.6
2023-02-12T04:26:54.398Z,9.7
2023-02-12T04:27:58.098Z,9.7
2023-02-12T04:29:01.786Z,9.7
2023-02-12T04:30:04.810Z,9.7
2023-02-12T04:31:08.715Z,9.7
2023-02-12T04:32:11.902Z,9.7
2023-02-12T04:33:14.717Z,9.7
2023-02-12T04:34:18.247Z,9.6
2023-02-12T04:35:21.359Z,9.6
2023-02-12T04:36:24.700Z,9.6
2023-02-12T04:37:28.397Z,9.6
2023-02-12T04:38:31.094Z,9.6
2023-02-12T04:39:34.887Z,9.6
2023-02-12T04:40:38.680Z,9.6
2023-02-12T04:41:42.021Z,9.6
2023-02-12T04:42:45.429Z,9.6
2023-02-12T04:43:48.580Z,9.6
2023-02-12T04:44:51.559Z,9.6
2023-02-12T04:45:55.724Z,9.6
2023-02-12T04:47:00.215Z,9.6
2023-02-12T04:48:03.052Z,9.6
2023-02-12T04:49:06.117Z,9.6
2023-02-12T04:50:09.847Z,9.6
2023-02-12T04:51:12.658Z,9.6
2023-02-12T04:52:15.453Z,9.6
2023-02-12T04:53:18.346Z,9.6
2023-02-12T04:54:21.820Z,9.6
2023-02-12T04:55:24.909Z,9.6
2023-02-12T04:56:28.444Z,9.6
2023-02-12T04:57:30.911Z,9.7
2023-02-12T04:58:34.232Z,9.7
2023-02-12T04:59:37.972Z,9.7
2023-02-12T05:00:41.165Z,9.7
2023-02-12T05:01:44.405Z,9.7
2023-02-12T05:02:48.338Z,9.7
2023-02-12T05:03:51.321Z,9.7
2023-02-12T05:04:54.422Z,9.7
2023-02-12T05:05:58.868Z,9.7
2023-02-12T05:07:02.302Z,9.7
2023-02-12T05:08:06.043Z,9.7
2023-02-12T05:09:08.841Z,9.7
2023-02-12T05:10:11.901Z,9.7
2023-02-12T05:11:15.699Z,9.7
2023-02-12T05:12:19.118Z,9.7
2023-02-12T05:13:22.468Z,9.7
2023-02-12T05:14:25.809Z,9.7
2023-02-12T05:15:29.259Z,9.7
2023-02-12T05:16:31.956Z,9.7
2023-02-12T05:17:34.861Z,9.8
2023-02-12T05:18:37.875Z,9.8
2023-02-12T05:19:40.491Z,9.8
2023-02-12T05:20:43.478Z,9.8
2023-02-12T05:21:46.936Z,9.8
2023-02-12T05:22:50.694Z,9.8
2023-02-12T05:23:53.431Z,9.8
2023-02-12T05:24:56.779Z,9.7
2023-02-12T05:26:00.203Z,9.8
2023-02-12T05:27:03.654Z,9.8
2023-02-12T05:28:06.976Z,9.7
2023-02-12T05:29:10.237Z,9.8
2023-02-12T05:30:12.391Z,9.8
2023-02-12T05:31:16.550Z,9.8
2023-02-12T05:32:24.557Z,9.8
2023-02-12T05:33:27.560Z,9.8
2023-02-12T05:34:31.250Z,9.8
2023-02-12T05:35:34.235Z,9.8
2023-02-12T05:36:36.659Z,9.8
2023-02-12T05:37:40.351Z,9.8
2023-02-12T05:38:43.397Z,9.8
2023-02-12T05:39:46.385Z,9.8
2023-02-12T05:40:49.657Z,9.8
2023-02-12T05:41:52.742Z,9.8
2023-02-12T05:42:56.215Z,9.8
2023-02-12T05:43:59.648Z,9.8
2023-02-12T05:45:02.260Z,9.8
2023-02-12T05:46:05.488Z,9.8
2023-02-12T05:47:09.090Z,9.8
2023-02-12T05:48:11.602Z,9.8
2023-02-12T05:49:15.312Z,9.8
2023-02-12T05:50:18.486Z,9.8
2023-02-12T05:51:21.209Z,9.8
2023-02-12T05:52:25.175Z,9.8
2023-02-12T05:53:28.576Z,9.8
2023-02-12T05:54:31.638Z,9.8
2023-02-12T05:55:34.510Z,9.8
2023-02-12T05:56:37.589Z,9.8
2023-02-12T05:57:41.130Z,9.8
2023-02-12T05:58:44.840Z,9.8
2023-02-12T05:59:47.994Z,9.8
2023-02-12T06:00:50.972Z,9.8
2023-02-12T06:01:53.788Z,9.8
2023-02-12T06:02:57.471Z,9.8
2023-02-12T06:04:00.954Z,9.8
2023-02-12T06:05:04.625Z,9.8
2023-02-12T06:06:07.996Z,9.8
2023-02-12T06:07:10.775Z,9.8
2023-02-12T06:08:14.494Z,9.8
2023-02-12T06:09:18.618Z,9.8
2023-02-12T06:10:22.020Z,9.8
2023-02-12T06:11:25.114Z,9.8
2023-02-12T06:12:28.409Z,9.8
2023-02-12T06:13:30.912Z,9.8
2023-02-12T06:14:34.392Z,9.8
2023-02-12T06:15:38.229Z,9.8
2023-02-12T06:16:41.181Z,9.8
2023-02-12T06:17:44.495Z,9.8
2023-02-12T06:18:47.612Z,9.8
2023-02-12T06:19:51.048Z,9.8
2023-02-12T06:20:54.103Z,9.8
2023-02-12T06:21:56.810Z,9.8
2023-02-12T06:22:59.994Z,9.8
2023-02-12T06:24:02.470Z,9.8
2023-02-12T06:25:06.225Z,9.8
2023-02-12T06:26:10.021Z,9.7
2023-02-12T06:27:13.460Z,9.8
2023-02-12T06:28:16.739Z,9.7
2023-02-12T06:29:20.326Z,9.7
2023-02-12T06:30:23.990Z,9.7
2023-02-12T06:31:27.481Z,9.7
2023-02-12T06:32:31.425Z,9.7
2023-02-12T06:33:34.586Z,9.7
2023-02-12T06:34:38.286Z,9.7
2023-02-12T06:35:41.350Z,9.7
2023-02-12T06:36:43.846Z,9.7
2023-02-12T06:37:46.549Z,9.7
2023-02-12T06:38:50.018Z,9.7
2023-02-12T06:39:52.810Z,9.7
2023-02-12T06:40:55.748Z,9.7
2023-02-12T06:41:59.086Z,9.7
2023-02-12T06:43:01.649Z,9.7
2023-02-12T06:44:05.101Z,9.6
2023-02-12T06:45:08.568Z,9.6
2023-02-12T06:46:11.861Z,9.6
2023-02-12T06:47:15.383Z,9.6
2023-02-12T06:48:18.664Z,9.6
2023-02-12T06:49:21.363Z,9.6
2023-02-12T06:50:25.026Z,9.6
2023-02-12T06:51:28.033Z,9.6
2023-02-12T06:52:31.128Z,9.6
2023-02-12T06:53:34.564Z,9.5
2023-02-12T06:54:37.141Z,9.6
2023-02-12T06:55:40.041Z,9.6
2023-02-12T06:56:43.257Z,9.5
2023-02-12T06:57:46.637Z,9.6
2023-02-12T06:58:49.808Z,9.6
2023-02-12T06:59:52.980Z,9.6
2023-02-12T07:00:56.785Z,9.6
2023-02-12T07:02:00.572Z,9.6
2023-02-12T07:03:03.790Z,9.6
2023-02-12T07:04:07.085Z,9.6
2023-02-12T07:05:10.134Z,9.6
2023-02-12T07:06:13.526Z,9.6
2023-02-12T07:07:16.307Z,9.6
2023-02-12T07:08:19.569Z,9.6
2023-02-12T07:09:22.144Z,9.5
2023-02-12T07:10:25.399Z,9.6
2023-02-12T07:11:28.543Z,9.5
2023-02-12T07:12:32.079Z,9.5
2023-02-12T07:13:35.513Z,9.5
2023-02-12T07:14:38.674Z,9.6
2023-02-12T07:15:42.038Z,9.5
2023-02-12T07:16:44.779Z,9.5
2023-02-12T07:17:48.980Z,9.6
2023-02-12T07:18:52.446Z,9.6
2023-02-12T07:19:55.235Z,9.6
2023-02-12T07:20:58.245Z,9.6
2023-02-12T07:22:01.161Z,9.6
2023-02-12T07:23:04.488Z,9.6
2023-02-12T07:24:07.065Z,9.6
2023-02-12T07:25:11.080Z,9.6
2023-02-12T07:26:13.824Z,9.7
2023-02-12T07:27:16.691Z,9.6
2023-02-12T07:28:20.468Z,9.6
2023-02-12T07:29:23.083Z,9.6
2023-02-12T07:30:26.433Z,9.6
2023-02-12T07:31:30.451Z,9.6
2023-02-12T07:32:34.398Z,9.6
2023-02-12T07:33:38.211Z,9.6
2023-02-12T07:34:41.666Z,9.6
2023-02-12T07:35:45.104Z,9.6
2023-02-12T07:36:48.808Z,9.6
2023-02-12T07:37:52.872Z,9.6
2023-02-12T07:38:55.586Z,9.5
2023-02-12T07:39:58.055Z,9.5
2023-02-12T07:41:01.134Z,9.5
2023-02-12T07:42:04.454Z,9.5
2023-02-12T07:43:07.921Z,9.5
2023-02-12T07:44:11.399Z,9.5
2023-02-12T07:45:14.498Z,9.5
2023-02-12T07:46:18.064Z,9.5
2023-02-12T07:47:21.998Z,9.5
2023-02-12T07:48:25.403Z,9.5
2023-02-12T07:49:28.565Z,9.5
2023-02-12T07:50:38.316Z,9.5
2023-02-12T07:51:41.688Z,9.5
2023-02-12T07:52:45.147Z,9.5
2023-02-12T07:53:48.245Z,9.5
2023-02-12T07:54:51.381Z,9.5
2023-02-12T07:55:55.724Z,9.5
2023-02-12T07:57:00.108Z,9.5
2023-02-12T07:58:03.485Z,9.6
2023-02-12T07:59:06.288Z,9.5
2023-02-12T08:00:09.763Z,9.6
2023-02-12T08:01:12.566Z,9.6
2023-02-12T08:02:15.636Z,9.6
2023-02-12T08:03:18.430Z,9.6
2023-02-12T08:04:21.461Z,9.6
2023-02-12T08:05:25.281Z,9.7
2023-02-12T08:06:28.456Z,9.6
2023-02-12T08:07:31.468Z,9.6
2023-02-12T08:08:33.923Z,9.7
2023-02-12T08:09:37.296Z,9.7
2023-02-12T08:10:40.824Z,9.7
2023-02-12T08:11:44.036Z,9.7
2023-02-12T08:12:47.678Z,9.7
2023-02-12T08:13:50.116Z,9.7
2023-02-12T08:14:53.191Z,9.7
2023-02-12T08:15:57.865Z,9.7
2023-02-12T08:17:01.314Z,9.7
2023-02-12T08:18:04.395Z,9.7
2023-02-12T08:19:26.299Z,9.7
2023-02-12T08:20:29.932Z,9.7
2023-02-12T08:21:32.401Z,9.7
2023-02-12T08:22:35.482Z,9.7
2023-02-12T08:23:38.823Z,9.8
2023-02-12T08:24:42.525Z,9.8
2023-02-12T08:25:45.228Z,9.8
2023-02-12T08:26:48.389Z,9.8
2023-02-12T08:27:51.839Z,9.8
2023-02-12T08:28:54.978Z,9.8
2023-02-12T08:29:57.779Z,9.9
2023-02-12T08:31:01.764Z,9.9
2023-02-12T08:32:05.745Z,9.9
2023-02-12T08:33:09.625Z,9.9
2023-02-12T08:34:12.609Z,9.9
2023-02-12T08:35:15.411Z,9.9
2023-02-12T08:36:18.220Z,9.9
2023-02-12T08:37:20.726Z,9.9
2023-02-12T08:38:24.199Z,9.9
2023-02-12T08:39:27.477Z,9.9
2023-02-12T08:40:31.833Z,9.9
2023-02-12T08:41:34.647Z,9.9
2023-02-12T08:42:37.621Z,9.9
2023-02-12T08:43:40.230Z,9.9
2023-02-12T08:44:43.581Z,9.9
2023-02-12T08:45:46.775Z,9.9
2023-02-12T08:46:50.670Z,9.9
2023-02-12T08:47:53.317Z,9.9
2023-02-12T08:48:56.100Z,9.9
2023-02-12T08:49:59.458Z,9.9
2023-02-12T08:51:02.492Z,9.9
2023-02-12T08:52:06.166Z,9.9
2023-02-12T08:53:09.664Z,9.9
2023-02-12T08:54:13.024Z,10
2023-02-12T08:55:16.411Z,10
2023-02-12T08:56:19.759Z,10
2023-02-12T08:57:22.628Z,10
2023-02-12T08:58:25.687Z,10
2023-02-12T08:59:29.059Z,10.1
2023-02-12T09:00:33.060Z,10.1
2023-02-12T09:01:35.972Z,10.2
2023-02-12T09:02:39.465Z,10.2
2023-02-12T09:03:43.316Z,10.2
2023-02-12T09:04:45.753Z,10.3
2023-02-12T09:05:48.746Z,10.3
2023-02-12T09:06:52.071Z,10.3
2023-02-12T09:07:55.494Z,10.3
2023-02-12T09:08:58.528Z,10.3
2023-02-12T09:10:01.832Z,10.4
2023-02-12T09:11:05.268Z,10.4
2023-02-12T09:12:08.455Z,10.4
2023-02-12T09:13:11.442Z,10.5
2023-02-12T09:14:14.530Z,10.5
2023-02-12T09:15:17.656Z,10.5
2023-02-12T09:16:20.267Z,10.6
2023-02-12T09:17:24.030Z,10.6
2023-02-12T09:18:27.479Z,10.6
2023-02-12T09:19:31.458Z,10.6
2023-02-12T09:20:34.829Z,10.7
2023-02-12T09:21:38.213Z,10.7
2023-02-12T09:22:41.515Z,10.7
2023-02-12T09:23:45.310Z,10.7
2023-02-12T09:24:48.752Z,10.8
2023-02-12T09:25:51.824Z,10.8
2023-02-12T09:26:54.922Z,10.8
2023-02-12T09:27:58.872Z,10.9
2023-02-12T09:29:01.815Z,10.9
2023-02-12T09:30:04.099Z,10.9
2023-02-12T09:31:07.840Z,11
2023-02-12T09:32:11.881Z,11
2023-02-12T09:33:15.471Z,10.9
2023-02-12T09:34:18.362Z,11
2023-02-12T09:35:21.088Z,11
2023-02-12T09:36:24.385Z,11
2023-02-12T09:37:27.501Z,11
2023-02-12T09:38:30.654Z,11
2023-02-12T09:39:34.470Z,11.1
2023-02-12T09:40:37.506Z,11.1
2023-02-12T09:41:40.521Z,11.1
2023-02-12T09:42:43.224Z,11.1
2023-02-12T09:43:46.994Z,11.1
2023-02-12T09:44:50.672Z,11.2
2023-02-12T09:45:55.103Z,11.2
2023-02-12T09:47:00.010Z,11.3
2023-02-12T09:48:03.528Z,11.4
2023-02-12T09:49:06.945Z,11.4
2023-02-12T09:50:10.654Z,11.5
2023-02-12T09:51:14.127Z,11.5
2023-02-12T09:52:17.933Z,11.5
2023-02-12T09:53:21.996Z,11.5
2023-02-12T09:54:25.441Z,11.5
2023-02-12T09:55:28.885Z,11.5
2023-02-12T09:56:32.031Z,11.5
2023-02-12T09:57:35.084Z,11.6
2023-02-12T09:58:38.261Z,11.6
2023-02-12T09:59:41.741Z,11.6
2023-02-12T10:00:44.889Z,11.6
2023-02-12T10:01:48.113Z,11.6
2023-02-12T10:02:51.821Z,11.6
2023-02-12T10:03:55.282Z,11.7
2023-02-12T10:05:03.428Z,11.8
2023-02-12T10:06:07.632Z,11.8
2023-02-12T10:07:11.078Z,11.9
2023-02-12T10:08:14.524Z,12
2023-02-12T10:09:17.244Z,12.2
2023-02-12T10:10:20.311Z,12.3
2023-02-12T10:11:24.011Z,12.3
2023-02-12T10:12:27.229Z,12.4
2023-02-12T10:13:30.722Z,12.5
2023-02-12T10:14:34.037Z,12.6
2023-02-12T10:15:37.880Z,12.7
2023-02-12T10:16:41.398Z,12.7
2023-02-12T10:17:44.770Z,12.8
2023-02-12T10:18:48.294Z,12.7
2023-02-12T10:19:52.339Z,12.8
2023-02-12T10:20:55.845Z,12.8
2023-02-12T10:22:00.923Z,12.8
2023-02-12T10:23:04.085Z,12.8
2023-02-12T10:24:07.846Z,12.8
2023-02-12T10:25:10.749Z,12.9
2023-02-12T10:26:14.204Z,13
2023-02-12T10:27:17.970Z,13
2023-02-12T10:28:21.372Z,13.1
2023-02-12T10:29:25.026Z,13.2
2023-02-12T10:30:28.038Z,13.2
2023-02-12T10:31:32.014Z,13.2
2023-02-12T10:32:36.275Z,13.2
2023-02-12T10:33:40.289Z,13.3
2023-02-12T10:34:43.647Z,13.3
2023-02-12T10:35:46.773Z,13.2
2023-02-12T10:36:50.172Z,13.3
2023-02-12T10:37:54.036Z,13.3
2023-02-12T10:38:57.313Z,13.3
2023-02-12T10:40:01.048Z,13.2
2023-02-12T10:41:04.531Z,13.2
2023-02-12T10:42:07.501Z,13.2
2023-02-12T10:43:11.336Z,13.2
2023-02-12T10:44:14.462Z,13.2
2023-02-12T10:45:18.229Z,13.1
2023-02-12T10:46:21.725Z,13.1
2023-02-12T10:47:25.207Z,13.1
2023-02-12T10:48:29.077Z,13.1
2023-02-12T10:49:33.378Z,13.1
2023-02-12T10:50:35.882Z,13.1
2023-02-12T10:51:38.564Z,13.2
2023-02-12T10:52:41.686Z,13.2
2023-02-12T10:53:45.476Z,13.2
2023-02-12T10:54:48.563Z,13.2
2023-02-12T10:55:52.103Z,13.2
2023-02-12T10:56:55.313Z,13.2
2023-02-12T10:57:58.109Z,13.2
2023-02-12T10:59:01.617Z,13.3
2023-02-12T11:00:04.372Z,13.3
2023-02-12T11:01:07.684Z,13.3
2023-02-12T11:02:11.436Z,13.3
2023-02-12T11:03:14.845Z,13.3
2023-02-12T11:04:18.491Z,13.4
2023-02-12T11:05:21.199Z,13.4
2023-02-12T11:06:23.955Z,13.4
2023-02-12T11:07:27.436Z,13.4
2023-02-12T11:08:30.200Z,13.4
2023-02-12T11:09:33.339Z,13.4
2023-02-12T11:10:36.106Z,13.4
2023-02-12T11:11:39.462Z,13.4
2023-02-12T11:12:41.878Z,13.3
2023-02-12T11:13:44.681Z,13.3
2023-02-12T11:14:48.157Z,13.3
2023-02-12T11:15:52.124Z,13.3
2023-02-12T11:16:55.852Z,13.3
2023-02-12T11:17:59.582Z,13.3
2023-02-12T11:19:03.548Z,13.3
2023-02-12T11:20:07.377Z,13.4
2023-02-12T11:21:11.124Z,13.4
2023-02-12T11:22:14.201Z,13.4
2023-02-12T11:23:17.986Z,13.4
2023-02-12T11:24:21.644Z,13.4
2023-02-12T11:25:25.434Z,13.5
2023-02-12T11:26:28.865Z,13.5
2023-02-12T11:27:32.243Z,13.5
2023-02-12T11:28:35.325Z,13.5
2023-02-12T11:29:39.001Z,13.5
2023-02-12T11:30:42.519Z,13.5
2023-02-12T11:31:45.784Z,13.5
2023-02-12T11:32:49.875Z,13.6
2023-02-12T11:33:53.413Z,13.5
2023-02-12T11:34:57.399Z,13.5
2023-02-12T11:36:03.437Z,13.6
2023-02-12T11:37:11.676Z,13.6
2023-02-12T11:38:15.127Z,13.6
2023-02-12T11:39:18.516Z,13.6
2023-02-12T11:40:21.860Z,13.7
2023-02-12T11:41:25.297Z,13.7
2023-02-12T11:42:28.344Z,13.7
2023-02-12T11:43:32.155Z,13.8
2023-02-12T11:44:34.813Z,13.8
2023-02-12T11:45:38.209Z,13.8
2023-02-12T11:46:41.564Z,13.8
2023-02-12T11:47:44.470Z,13.8
2023-02-12T11:48:48.108Z,13.9
2023-02-12T11:49:50.925Z,13.9
2023-02-12T11:50:54.253Z,13.9
2023-02-12T11:51:57.246Z,13.9
2023-02-12T11:53:00.162Z,13.9
2023-02-12T11:54:03.320Z,13.9
2023-02-12T11:55:06.427Z,13.9
2023-02-12T11:56:09.511Z,13.9
2023-02-12T11:57:13.230Z,13.9
2023-02-12T11:58:16.943Z,13.9
2023-02-12T11:59:20.392Z,13.9
2023-02-12T12:00:23.460Z,13.9
2023-02-12T12:01:26.893Z,13.9
2023-02-12T12:02:30.604Z,13.9
2023-02-12T12:03:34.374Z,14
2023-02-12T12:04:37.795Z,14
2023-02-12T12:05:40.776Z,14
2023-02-12T12:06:43.529Z,14.1
2023-02-12T12:07:46.905Z,14.1
2023-02-12T12:08:50.327Z,14.2
2023-02-12T12:09:53.973Z,14.2
2023-02-12T12:10:57.034Z,14.2
2023-02-12T12:12:00.184Z,14.3
2023-02-12T12:13:03.728Z,14.3
2023-02-12T12:14:06.423Z,14.3
2023-02-12T12:15:10.175Z,14.3
2023-02-12T12:16:13.408Z,14.3
2023-02-12T12:17:17.188Z,14.3
2023-02-12T12:18:21.515Z,14.3
2023-02-12T12:19:25.370Z,14.3
2023-02-12T12:20:31.357Z,14.3
2023-02-12T12:21:35.117Z,14.4
2023-02-12T12:22:38.306Z,14.3
2023-02-12T12:23:42.226Z,14.3
2023-02-12T12:24:45.901Z,14.3
2023-02-12T12:25:48.731Z,14.3
2023-02-12T12:26:51.995Z,14.3
2023-02-12T12:27:54.987Z,14.3
2023-02-12T12:28:59.060Z,14.3
2023-02-12T12:30:01.527Z,14.3
2023-02-12T12:31:05.032Z,14.3
2023-02-12T12:32:07.762Z,14.3
2023-02-12T12:33:10.527Z,14.4
2023-02-12T12:34:14.102Z,14.4
2023-02-12T12:35:17.290Z,14.4
2023-02-12T12:36:20.661Z,14.4
2023-02-12T12:37:24.427Z,14.4
2023-02-12T12:38:26.902Z,14.4
2023-02-12T12:39:29.985Z,14.4
2023-02-12T12:40:33.263Z,14.3
2023-02-12T12:41:36.716Z,14.3
2023-02-12T12:42:40.138Z,14.3
2023-02-12T12:43:43.116Z,14.2
2023-02-12T12:44:46.586Z,14.2
2023-02-12T12:45:49.930Z,14.1
2023-02-12T12:46:54.205Z,14.1
2023-02-12T12:47:57.643Z,14.1
2023-02-12T12:49:01.060Z,14
2023-02-12T12:50:05.183Z,14
2023-02-12T12:51:08.904Z,14
2023-02-12T12:52:12.230Z,13.9
2023-02-12T12:53:15.671Z,13.9
2023-02-12T12:54:18.777Z,13.8
2023-02-12T12:55:22.355Z,13.8
2023-02-12T12:56:25.802Z,13.8
2023-02-12T12:57:29.157Z,13.8
2023-02-12T12:58:32.207Z,13.8
2023-02-12T12:59:35.315Z,13.8
2023-02-12T13:00:38.715Z,13.8
2023-02-12T13:01:41.753Z,13.8
2023-02-12T13:02:45.376Z,13.7
2023-02-12T13:03:49.418Z,13.7
2023-02-12T13:04:52.583Z,13.7
2023-02-12T13:05:57.329Z,13.7
2023-02-12T13:07:01.180Z,13.7
2023-02-12T13:08:04.469Z,13.6
2023-02-12T13:09:07.833Z,13.6
2023-02-12T13:10:11.019Z,13.6
2023-02-12T13:11:14.117Z,13.6
2023-02-12T13:12:17.259Z,13.5
2023-02-12T13:13:20.368Z,13.5
2023-02-12T13:14:23.758Z,13.5
2023-02-12T13:15:27.178Z,13.5
2023-02-12T13:16:30.227Z,13.4
2023-02-12T13:17:33.441Z,13.4
2023-02-12T13:18:36.930Z,13.4
2023-02-12T13:19:39.443Z,13.3
2023-02-12T13:20:42.128Z,13.3
2023-02-12T13:21:45.891Z,13.2
2023-02-12T13:22:48.960Z,13.2
2023-02-12T13:23:52.385Z,13.2
2023-02-12T13:24:55.291Z,13.2
2023-02-12T13:25:59.328Z,13.1
2023-02-12T13:27:02.593Z,13.1
2023-02-12T13:28:05.943Z,13.1
2023-02-12T13:29:09.200Z,13.1
2023-02-12T13:30:12.600Z,13.1
2023-02-12T13:31:34.935Z,13.1
2023-02-12T13:32:39.394Z,13
2023-02-12T13:33:42.507Z,13
2023-02-12T13:34:45.301Z,13.1
2023-02-12T13:35:49.026Z,13
2023-02-12T13:36:52.682Z,13
2023-02-12T13:37:56.097Z,13
2023-02-12T13:38:58.836Z,13
2023-02-12T13:40:01.899Z,13
2023-02-12T13:41:05.366Z,13
2023-02-12T13:42:08.548Z,12.9
2023-02-12T13:43:11.627Z,13
2023-02-12T13:44:15.332Z,12.9
2023-02-12T13:45:17.913Z,12.9
2023-02-12T13:46:21.226Z,12.9
2023-02-12T13:47:24.506Z,12.9
2023-02-12T13:48:28.202Z,12.9
2023-02-12T13:49:31.585Z,12.9
2023-02-12T13:50:34.830Z,12.9
2023-02-12T13:51:38.238Z,12.9
2023-02-12T13:52:42.313Z,12.9
2023-02-12T13:53:45.748Z,12.9
2023-02-12T13:54:49.697Z,12.8
2023-02-12T13:55:52.792Z,12.8
2023-02-12T13:56:57.814Z,12.8
2023-02-12T13:58:00.983Z,12.8
2023-02-12T13:59:04.968Z,12.8
2023-02-12T14:00:08.293Z,12.8
2023-02-12T14:01:10.936Z,12.8
2023-02-12T14:02:14.553Z,12.8
2023-02-12T14:03:18.494Z,12.8
2023-02-12T14:04:21.922Z,12.8
2023-02-12T14:05:25.704Z,12.8
2023-02-12T14:06:28.433Z,12.8
2023-02-12T14:07:31.312Z,12.8
2023-02-12T14:08:34.864Z,12.8
2023-02-12T14:09:38.460Z,12.8
2023-02-12T14:10:41.846Z,12.8
2023-02-12T14:11:45.510Z,12.8
2023-02-12T14:12:49.200Z,12.8
2023-02-12T14:13:52.266Z,12.8
2023-02-12T14:14:55.618Z,12.8
2023-02-12T14:16:00.961Z,12.8
2023-02-12T14:17:03.960Z,12.8
2023-02-12T14:18:07.053Z,12.8
2023-02-12T14:19:10.748Z,12.8
2023-02-12T14:20:14.513Z,12.8
2023-02-12T14:21:17.926Z,12.7
2023-02-12T14:22:21.359Z,12.7
2023-02-12T14:23:24.757Z,12.7
2023-02-12T14:24:28.510Z,12.7
2023-02-12T14:25:32.204Z,12.7
2023-02-12T14:26:35.623Z,12.7
2023-02-12T14:27:38.735Z,12.7